Time;durP1;ratioP1;P1;durP2;ratioP2;P2;SDS_P1;SDS_P2;PMS_P1;PMS_P2;Temp;Humidity;BMP_temperature;BMP_pressure;BME280_temperature;BME280_humidity;BME280_pressure;Samples;Min_cycle;Max_cycle;Signal;HPM_P1;HPM_P2
2023/03/31 00:02:06;;;;;;;0.70;0.70;;;11.70;94.30;;;;;;6127392;23;20368;-71
2023/03/31 00:04:32;;;;;;;0.87;0.87;;;11.70;94.10;;;;;;6127342;23;20356;-71
2023/03/31 00:06:58;;;;;;;1.10;0.90;;;11.70;94.30;;;;;;6127752;23;20380;-71
2023/03/31 00:09:23;;;;;;;1.47;1.20;;;11.80;93.80;;;;;;6127576;23;20431;-71
2023/03/31 00:11:50;;;;;;;1.40;1.30;;;11.80;94.10;;;;;;6127754;23;20379;-71
2023/03/31 00:14:18;;;;;;;0.70;0.67;;;11.80;94.20;;;;;;6127186;23;20494;-71
2023/03/31 00:16:44;;;;;;;0.40;0.40;;;11.80;94.40;;;;;;6127212;23;20376;-71
2023/03/31 00:19:16;;;;;;;0.70;0.70;;;11.70;94.60;;;;;;6126799;23;20507;-71
2023/03/31 00:21:43;;;;;;;0.57;0.57;;;11.70;94.50;;;;;;6127044;23;20416;-71
2023/03/31 00:24:11;;;;;;;0.87;0.80;;;11.70;95.30;;;;;;6127751;23;20424;-71
2023/03/31 00:26:37;;;;;;;0.50;0.50;;;11.50;95.90;;;;;;6127037;23;20459;-71
2023/03/31 00:29:05;;;;;;;1.80;1.70;;;11.40;96.50;;;;;;6127088;23;20396;-71
2023/03/31 00:31:31;;;;;;;0.63;0.63;;;11.20;97.40;;;;;;6127301;23;20714;-71
2023/03/31 00:33:57;;;;;;;1.07;1.07;;;11.10;98.30;;;;;;6127217;23;20447;-71
2023/03/31 00:36:26;;;;;;;0.70;0.70;;;11.00;99.10;;;;;;6127370;23;20431;-70
2023/03/31 00:38:57;;;;;;;1.02;0.80;;;10.90;99.40;;;;;;6126706;23;20572;-71
2023/03/31 00:41:23;;;;;;;0.73;0.73;;;10.90;99.70;;;;;;6127079;23;20133;-70
2023/03/31 00:44:07;;;;;;;0.70;0.70;;;10.90;99.90;;;;;;6126609;23;20396;-71
2023/03/31 00:47:12;;;;;;;1.30;1.30;;;10.90;99.90;;;;;;6101438;23;20147;-70
2023/03/31 00:49:45;;;;;;;1.30;1.30;;;10.80;99.90;;;;;;6047092;23;20238;-71
2023/03/31 00:52:43;;;;;;;0.40;0.40;;;10.60;99.90;;;;;;6126945;23;20352;-71
2023/03/31 00:55:13;;;;;;;1.73;1.05;;;10.70;99.90;;;;;;6022717;23;20187;-71
2023/03/31 00:57:42;;;;;;;1.13;1.02;;;10.60;99.90;;;;;;6127477;23;20254;-71
2023/03/31 01:00:14;;;;;;;2.60;2.40;;;10.60;99.90;;;;;;6126779;23;20172;-71
2023/03/31 01:02:51;;;;;;;0.50;0.50;;;10.60;99.90;;;;;;6126877;23;20564;-71
2023/03/31 01:05:20;;;;;;;0.90;0.90;;;10.50;99.90;;;;;;6127280;23;20208;-71
2023/03/31 01:07:47;;;;;;;0.60;0.60;;;10.50;99.90;;;;;;6127325;23;20480;-71
2023/03/31 01:10:13;;;;;;;2.28;0.50;;;10.60;99.90;;;;;;6127333;23;20392;-71
2023/03/31 01:12:42;;;;;;;4.13;0.73;;;10.50;99.90;;;;;;6126564;23;20159;-71
2023/03/31 01:15:09;;;;;;;1.10;1.10;;;10.50;99.90;;;;;;6126862;23;20152;-71
2023/03/31 01:17:35;;;;;;;0.82;0.82;;;10.50;99.90;;;;;;6127081;23;20152;-71
2023/03/31 01:20:39;;;;;;;1.27;1.17;;;10.60;99.90;;;;;;6127110;23;20251;-71
2023/03/31 01:23:24;;;;;;;1.00;0.90;;;10.60;99.90;;;;;;6100523;23;20410;-71
2023/03/31 01:26:27;;;;;;;1.13;0.70;;;10.50;99.90;;;;;;6100969;23;20426;-71
2023/03/31 01:29:01;;;;;;;1.08;1.08;;;10.50;99.90;;;;;;6101148;23;20176;-71
2023/03/31 01:31:33;;;;;;;0.82;0.75;;;10.40;99.90;;;;;;6126586;23;20143;-71
2023/03/31 01:34:20;;;;;;;0.40;0.40;;;10.40;99.90;;;;;;6126708;23;20537;-71
2023/03/31 01:37:06;;;;;;;0.55;0.55;;;10.50;99.90;;;;;;6126700;23;20140;-71
2023/03/31 01:39:59;;;;;;;2.55;1.00;;;10.50;99.90;;;;;;6126342;23;20184;-71
2023/03/31 01:42:45;;;;;;;0.60;0.60;;;10.40;99.90;;;;;;6126528;23;20143;-71
2023/03/31 01:45:29;;;;;;;0.70;0.70;;;10.40;99.90;;;;;;6127188;23;20160;-71
2023/03/31 01:48:01;;;;;;;0.90;0.90;;;10.30;99.90;;;;;;6126772;23;20148;-71
2023/03/31 01:50:33;;;;;;;0.88;0.70;;;10.30;99.90;;;;;;6128734;23;20172;-70
2023/03/31 01:53:28;;;;;;;2.40;1.25;;;10.30;99.90;;;;;;6128289;23;20156;-71
2023/03/31 01:56:06;;;;;;;0.50;0.50;;;10.30;99.90;;;;;;6128444;23;20136;-71
2023/03/31 01:58:37;;;;;;;6.28;1.60;;;10.30;99.90;;;;;;6128497;23;20180;-71
2023/03/31 02:01:14;;;;;;;0.98;0.98;;;10.20;99.90;;;;;;6128731;23;20215;-71
2023/03/31 02:03:47;;;;;;;1.23;1.15;;;10.20;99.90;;;;;;6128054;23;20129;-71
2023/03/31 02:06:19;;;;;;;1.20;1.20;;;10.20;99.90;;;;;;6128334;23;20215;-70
2023/03/31 02:08:52;;;;;;;1.15;1.10;;;10.00;99.90;;;;;;6128672;23;20179;-71
2023/03/31 02:11:19;;;;;;;6.20;1.48;;;10.00;99.90;;;;;;6128801;23;20141;-71
2023/03/31 02:13:48;;;;;;;0.40;0.40;;;10.00;99.90;;;;;;6128541;23;20148;-71
2023/03/31 02:16:20;;;;;;;0.43;0.43;;;10.10;99.90;;;;;;6128277;23;20148;-71
2023/03/31 02:18:48;;;;;;;0.63;0.63;;;10.10;99.90;;;;;;6128661;23;20183;-71
2023/03/31 02:21:16;;;;;;;0.30;0.30;;;10.00;99.90;;;;;;6128285;23;20171;-71
2023/03/31 02:23:43;;;;;;;1.15;0.85;;;10.10;99.90;;;;;;6128325;23;20264;-71
2023/03/31 02:26:23;;;;;;;0.45;0.45;;;10.10;99.90;;;;;;6128856;23;20227;-71
2023/03/31 02:28:49;;;;;;;1.25;1.02;;;10.10;99.90;;;;;;6128106;23;20179;-71
2023/03/31 02:31:36;;;;;;;0.93;0.85;;;10.10;99.90;;;;;;6128912;23;20228;-71
2023/03/31 02:34:02;;;;;;;0.93;0.93;;;10.00;99.90;;;;;;6128569;23;20224;-71
2023/03/31 02:36:28;;;;;;;0.53;0.53;;;10.00;99.90;;;;;;6128730;23;20609;-71
2023/03/31 02:39:16;;;;;;;0.63;0.63;;;10.00;99.90;;;;;;6128344;23;20188;-70
2023/03/31 02:41:42;;;;;;;0.55;0.55;;;9.90;99.90;;;;;;6128320;23;20588;-71
2023/03/31 02:44:09;;;;;;;2.50;2.40;;;9.90;99.90;;;;;;6127990;23;20153;-71
2023/03/31 02:46:36;;;;;;;0.70;0.70;;;9.90;99.90;;;;;;6128174;23;20227;-71
2023/03/31 02:49:05;;;;;;;0.73;0.73;;;9.90;99.90;;;;;;6127791;23;20172;-71
2023/03/31 02:52:04;;;;;;;0.95;0.95;;;9.80;99.90;;;;;;6102533;23;20160;-71
2023/03/31 02:54:51;;;;;;;1.00;0.98;;;9.90;99.90;;;;;;6128206;23;20470;-71
2023/03/31 02:57:29;;;;;;;0.65;0.65;;;9.90;99.90;;;;;;6128148;23;20155;-70
2023/03/31 02:59:56;;;;;;;0.65;0.63;;;9.90;99.90;;;;;;6127913;23;20179;-71
2023/03/31 03:02:37;;;;;;;0.60;0.60;;;9.90;99.90;;;;;;6127774;23;20144;-71
2023/03/31 03:05:25;;;;;;;0.73;0.73;;;9.90;99.90;;;;;;6127962;23;20129;-71
2023/03/31 03:08:28;;;;;;;0.70;0.70;;;9.90;99.90;;;;;;6102280;23;20467;-71
2023/03/31 03:11:18;;;;;;;2.08;1.98;;;9.80;99.90;;;;;;6054168;23;20160;-70
2023/03/31 03:13:51;;;;;;;2.72;0.98;;;9.80;99.90;;;;;;6127868;23;20144;-71
2023/03/31 03:16:56;;;;;;;1.58;1.30;;;9.90;99.90;;;;;;6128155;23;20695;-71
2023/03/31 03:19:22;;;;;;;0.70;0.70;;;10.00;99.90;;;;;;5981832;23;20196;-71
2023/03/31 03:21:48;;;;;;;1.02;1.02;;;10.00;99.90;;;;;;6102229;23;20498;-71
2023/03/31 03:24:15;;;;;;;0.88;0.88;;;9.90;99.90;;;;;;6128310;23;20448;-71
2023/03/31 03:26:41;;;;;;;2.08;1.98;;;9.90;99.90;;;;;;6128209;23;20144;-71
2023/03/31 03:29:07;;;;;;;0.80;0.80;;;9.80;99.90;;;;;;6127667;23;20479;-71
2023/03/31 03:31:33;;;;;;;0.80;0.80;;;9.90;99.90;;;;;;6127588;23;20380;-71
2023/03/31 03:33:59;;;;;;;1.23;0.90;;;9.90;99.90;;;;;;6127361;23;20152;-70
2023/03/31 03:36:25;;;;;;;4.22;3.90;;;9.90;99.90;;;;;;6127624;23;20471;-70
2023/03/31 03:38:50;;;;;;;2.00;1.50;;;9.80;99.90;;;;;;6101642;23;20192;-70
2023/03/31 03:41:16;;;;;;;1.23;1.20;;;9.80;99.90;;;;;;6101925;23;20159;-71
2023/03/31 03:43:42;;;;;;;0.70;0.70;;;9.80;99.90;;;;;;6127818;23;20155;-71
2023/03/31 03:46:07;;;;;;;0.80;0.80;;;9.80;99.90;;;;;;6128170;23;20149;-71
2023/03/31 03:48:33;;;;;;;1.10;1.03;;;9.80;99.90;;;;;;6127708;23;20168;-71
2023/03/31 03:51:00;;;;;;;2.10;1.70;;;9.80;99.90;;;;;;6127368;23;20148;-71
2023/03/31 03:53:25;;;;;;;0.80;0.80;;;9.80;99.90;;;;;;6127493;23;20580;-71
2023/03/31 03:55:51;;;;;;;0.60;0.60;;;9.90;99.90;;;;;;6127810;23;20195;-70
2023/03/31 03:58:18;;;;;;;0.90;0.90;;;9.90;99.90;;;;;;6127663;23;20183;-71
2023/03/31 04:00:45;;;;;;;0.52;0.52;;;9.90;99.90;;;;;;6128077;23;20144;-71
2023/03/31 04:03:11;;;;;;;1.77;1.67;;;9.80;99.90;;;;;;6127030;23;20580;-71
2023/03/31 04:05:36;;;;;;;0.90;0.90;;;9.80;99.90;;;;;;6127446;23;20172;-71
2023/03/31 04:08:03;;;;;;;1.30;1.20;;;9.70;99.90;;;;;;6101602;23;20573;-71
2023/03/31 04:10:29;;;;;;;2.00;1.88;;;9.80;99.90;;;;;;6127927;23;20192;-71
2023/03/31 04:12:54;;;;;;;0.73;0.73;;;9.80;99.90;;;;;;6100847;23;20496;-71
2023/03/31 04:15:20;;;;;;;0.40;0.40;;;9.90;99.90;;;;;;6128173;23;20156;-70
2023/03/31 04:17:49;;;;;;;1.50;1.07;;;9.80;99.90;;;;;;6127038;23;20172;-71
2023/03/31 04:20:16;;;;;;;0.82;0.80;;;9.80;99.90;;;;;;6127373;23;20398;-71
2023/03/31 04:22:45;;;;;;;0.90;0.90;;;9.80;99.90;;;;;;6126632;23;20164;-71
2023/03/31 04:25:15;;;;;;;2.08;1.88;;;9.70;99.90;;;;;;6126929;23;20172;-71
2023/03/31 04:27:53;;;;;;;0.73;0.73;;;9.70;99.90;;;;;;6127911;23;20171;-71
2023/03/31 04:30:23;;;;;;;1.45;1.35;;;9.80;99.90;;;;;;6100953;23;20485;-71
2023/03/31 04:32:54;;;;;;;1.67;1.58;;;9.80;99.90;;;;;;6100887;23;20153;-70
2023/03/31 04:35:22;;;;;;;1.10;1.10;;;9.90;99.90;;;;;;6126683;23;20176;-71
2023/03/31 04:37:49;;;;;;;2.28;1.75;;;9.90;99.90;;;;;;6127234;23;20179;-71
2023/03/31 04:40:16;;;;;;;2.53;2.38;;;10.00;99.90;;;;;;6127763;23;20191;-71
2023/03/31 04:42:42;;;;;;;2.53;0.95;;;9.90;99.90;;;;;;6126987;23;20148;-71
2023/03/31 04:45:09;;;;;;;1.98;1.88;;;9.80;99.90;;;;;;6100927;23;20152;-71
2023/03/31 04:47:34;;;;;;;4.03;3.72;;;9.80;99.90;;;;;;6127291;23;20164;-71
2023/03/31 04:50:00;;;;;;;2.97;0.73;;;9.80;99.90;;;;;;6127191;23;20537;-71
2023/03/31 04:52:25;;;;;;;0.93;0.93;;;9.90;99.90;;;;;;6126527;23;20152;-71
2023/03/31 04:54:51;;;;;;;0.77;0.73;;;10.00;99.90;;;;;;6127459;23;20223;-71
2023/03/31 04:57:17;;;;;;;1.10;1.10;;;10.00;99.90;;;;;;6127819;23;20152;-70
2023/03/31 04:59:42;;;;;;;0.50;0.50;;;10.00;99.90;;;;;;6100763;23;20198;-71
2023/03/31 05:02:08;;;;;;;0.80;0.80;;;10.00;99.90;;;;;;6126646;23;20580;-71
2023/03/31 05:04:33;;;;;;;1.50;1.40;;;9.90;99.90;;;;;;6126973;23;20148;-71
2023/03/31 05:06:59;;;;;;;3.17;1.80;;;9.90;99.90;;;;;;6126534;23;20159;-71
2023/03/31 05:09:24;;;;;;;1.40;1.40;;;9.80;99.90;;;;;;6127380;23;20168;-70
2023/03/31 05:11:50;;;;;;;2.57;1.80;;;9.80;99.90;;;;;;6127201;23;20156;-70
2023/03/31 05:14:16;;;;;;;2.07;1.97;;;9.60;99.90;;;;;;6126761;23;20152;-70
2023/03/31 05:16:42;;;;;;;0.50;0.50;;;9.60;99.90;;;;;;6127038;23;20210;-71
2023/03/31 05:19:07;;;;;;;2.10;1.87;;;9.70;99.90;;;;;;6126432;23;20231;-71
2023/03/31 05:21:33;;;;;;;0.80;0.80;;;9.80;99.90;;;;;;6126925;23;20437;-71
2023/03/31 05:23:59;;;;;;;1.73;1.10;;;9.80;99.90;;;;;;6126770;23;20210;-70
2023/03/31 05:26:24;;;;;;;32.93;4.33;;;9.90;99.90;;;;;;6101265;23;20183;-70
2023/03/31 05:28:51;;;;;;;2.53;0.77;;;10.00;99.90;;;;;;6127093;23;20173;-70
2023/03/31 05:31:17;;;;;;;1.55;1.45;;;10.00;99.90;;;;;;6126914;23;20756;-71
2023/03/31 05:33:43;;;;;;;1.55;1.55;;;10.00;99.90;;;;;;6100204;23;20156;-70
2023/03/31 05:36:14;;;;;;;1.73;1.63;;;10.00;99.90;;;;;;6126936;23;20149;-71
2023/03/31 05:38:40;;;;;;;2.17;1.98;;;9.90;99.90;;;;;;6127082;23;20482;-70
2023/03/31 05:41:08;;;;;;;2.95;1.55;;;9.90;99.90;;;;;;6127331;23;20155;-71
2023/03/31 05:43:34;;;;;;;5.47;2.33;;;10.00;99.90;;;;;;6126464;23;20227;-71
2023/03/31 05:46:00;;;;;;;1.83;1.80;;;10.00;99.90;;;;;;6126738;23;20156;-71
2023/03/31 05:48:26;;;;;;;2.28;2.10;;;10.00;99.90;;;;;;6126732;23;20502;-70
2023/03/31 05:50:56;;;;;;;2.57;2.40;;;10.00;99.90;;;;;;6127056;23;20232;-70
2023/03/31 05:53:22;;;;;;;1.55;1.45;;;10.10;99.90;;;;;;6126259;23;20376;-70
2023/03/31 05:55:48;;;;;;;2.17;2.00;;;10.10;99.90;;;;;;6100558;23;20576;-71
2023/03/31 05:58:14;;;;;;;1.83;1.10;;;10.20;99.90;;;;;;6126656;23;20474;-71
2023/03/31 06:00:40;;;;;;;1.23;1.13;;;10.20;99.90;;;;;;6125339;23;20153;-71
2023/03/31 06:03:06;;;;;;;4.47;2.20;;;10.30;99.90;;;;;;6125020;23;20154;-70
2023/03/31 06:05:33;;;;;;;1.38;1.25;;;10.30;99.90;;;;;;6125685;23;20149;-71
2023/03/31 06:07:59;;;;;;;1.25;1.25;;;10.30;99.90;;;;;;6125663;23;20153;-71
2023/03/31 06:10:25;;;;;;;2.07;1.97;;;10.30;99.90;;;;;;6126320;23;20172;-71
2023/03/31 06:12:50;;;;;;;0.50;0.50;;;10.30;99.90;;;;;;6126035;23;20153;-70
2023/03/31 06:15:16;;;;;;;0.97;0.77;;;10.40;99.90;;;;;;6126682;23;20573;-71
2023/03/31 06:17:42;;;;;;;0.90;0.90;;;10.30;99.90;;;;;;6126741;23;20148;-71
2023/03/31 06:20:08;;;;;;;1.27;0.67;;;10.30;99.90;;;;;;6126852;23;20168;-70
2023/03/31 06:22:33;;;;;;;0.80;0.80;;;10.10;99.90;;;;;;6126132;23;20247;-71
2023/03/31 06:24:59;;;;;;;1.23;1.13;;;10.20;99.90;;;;;;6126735;23;20535;-70
2023/03/31 06:27:25;;;;;;;0.90;0.90;;;10.40;99.90;;;;;;6126666;23;20212;-70
2023/03/31 06:29:50;;;;;;;0.73;0.73;;;10.50;99.90;;;;;;6126593;23;20259;-71
2023/03/31 06:32:16;;;;;;;2.00;1.03;;;10.60;99.90;;;;;;6126289;23;20689;-71
2023/03/31 06:34:41;;;;;;;7.97;1.87;;;10.50;99.90;;;;;;6126925;23;20227;-70
2023/03/31 06:37:07;;;;;;;0.87;0.87;;;10.30;99.90;;;;;;6128264;23;20155;-70
2023/03/31 06:39:33;;;;;;;0.30;0.30;;;10.10;99.90;;;;;;6102104;23;20242;-71
2023/03/31 06:41:58;;;;;;;0.30;0.30;;;9.90;99.90;;;;;;6127793;23;20228;-71
2023/03/31 06:44:24;;;;;;;0.30;0.30;;;9.80;99.90;;;;;;6128386;23;20235;-70
2023/03/31 06:46:49;;;;;;;0.30;0.30;;;9.70;99.90;;;;;;6128528;23;20198;-71
2023/03/31 06:49:15;;;;;;;0.40;0.40;;;9.50;99.90;;;;;;6128067;23;20201;-71
2023/03/31 06:51:41;;;;;;;0.40;0.40;;;9.50;99.90;;;;;;6102152;23;20163;-71
2023/03/31 06:54:06;;;;;;;0.50;0.50;;;9.50;99.90;;;;;;6127981;23;20160;-70
2023/03/31 06:56:32;;;;;;;0.40;0.40;;;9.40;99.90;;;;;;6128023;23;20159;-70
2023/03/31 06:58:58;;;;;;;0.40;0.40;;;9.40;99.90;;;;;;6127755;23;20698;-71
2023/03/31 07:01:23;;;;;;;1.00;1.00;;;9.30;99.90;;;;;;6127803;23;20576;-70
2023/03/31 07:03:49;;;;;;;0.30;0.30;;;9.30;99.90;;;;;;6128258;23;20169;-70
2023/03/31 07:06:15;;;;;;;0.40;0.40;;;9.20;99.90;;;;;;6127760;23;20483;-70
2023/03/31 07:08:41;;;;;;;0.30;0.30;;;9.20;99.90;;;;;;6127776;23;20176;-70
2023/03/31 07:11:06;;;;;;;0.30;0.30;;;9.10;99.90;;;;;;6128168;23;20488;-70
2023/03/31 07:13:32;;;;;;;1.07;0.93;;;9.10;99.90;;;;;;6127918;23;20384;-70
2023/03/31 07:15:58;;;;;;;0.87;0.87;;;9.20;99.90;;;;;;6128035;23;20472;-70
2023/03/31 07:18:24;;;;;;;0.30;0.30;;;9.40;99.90;;;;;;6128066;23;20172;-71
2023/03/31 07:20:50;;;;;;;3.22;1.35;;;9.60;99.90;;;;;;6128391;23;20152;-70
2023/03/31 07:23:17;;;;;;;0.57;0.57;;;9.80;99.90;;;;;;6127442;23;20295;-70
2023/03/31 07:25:44;;;;;;;0.70;0.70;;;10.10;99.90;;;;;;6127797;23;20145;-70
2023/03/31 07:28:09;;;;;;;0.50;0.40;;;10.30;99.90;;;;;;6126469;23;20149;-67
2023/03/31 07:30:35;;;;;;;0.70;0.70;;;10.60;99.90;;;;;;6128382;23;20152;-69
2023/03/31 07:33:01;;;;;;;0.60;0.60;;;11.10;99.90;;;;;;6127436;23;20597;-71
2023/03/31 07:35:28;;;;;;;0.30;0.30;;;11.60;99.90;;;;;;6126627;23;20152;-69
2023/03/31 07:37:54;;;;;;;0.40;0.40;;;11.90;99.90;;;;;;6127147;23;20426;-71
2023/03/31 07:40:23;;;;;;;0.33;0.33;;;12.00;99.90;;;;;;6126406;23;20396;-70
2023/03/31 07:42:50;;;;;;;0.43;0.43;;;12.10;99.60;;;;;;6127594;23;20144;-71
2023/03/31 07:45:17;;;;;;;0.47;0.47;;;12.20;99.40;;;;;;6127221;23;20403;-71
2023/03/31 07:47:45;;;;;;;0.50;0.50;;;12.10;99.40;;;;;;6127462;23;20406;-68
2023/03/31 07:50:11;;;;;;;1.13;0.70;;;12.30;99.60;;;;;;6127626;23;20388;-67
2023/03/31 07:52:37;;;;;;;0.63;0.50;;;12.60;99.20;;;;;;6127549;23;20380;-68
2023/03/31 07:55:03;;;;;;;0.70;0.70;;;13.00;98.80;;;;;;6129366;23;20899;-68
2023/03/31 07:57:29;;;;;;;0.60;0.60;;;13.20;97.60;;;;;;6131880;23;20151;-69
2023/03/31 07:59:54;;;;;;;0.60;0.60;;;13.20;96.90;;;;;;6128632;23;20936;-71
2023/03/31 08:02:20;;;;;;;1.60;1.53;;;13.20;96.80;;;;;;6125396;23;20171;-70
2023/03/31 08:04:46;;;;;;;0.63;0.63;;;13.30;96.90;;;;;;6126035;23;20179;-70
2023/03/31 08:07:14;;;;;;;0.50;0.50;;;13.40;96.60;;;;;;6127597;23;20147;-69
2023/03/31 08:09:41;;;;;;;1.83;0.40;;;13.40;96.60;;;;;;6127709;23;20478;-70
2023/03/31 08:12:07;;;;;;;0.63;0.60;;;13.60;96.20;;;;;;6127791;23;20442;-70
2023/03/31 08:14:33;;;;;;;0.50;0.50;;;13.80;95.30;;;;;;6129407;23;20372;-75
2023/03/31 08:16:59;;;;;;;0.67;0.40;;;13.80;95.00;;;;;;6128069;23;20184;-75
2023/03/31 08:19:25;;;;;;;0.60;0.60;;;13.30;95.50;;;;;;6101888;23;20239;-75
2023/03/31 08:37:23;;;;;;;5.07;0.88;;;11.10;99.00;;;;;;6123764;23;20191;-75
2023/03/31 08:42:39;;;;;;;0.50;0.50;;;11.50;99.10;;;;;;6114382;23;20247;-74
2023/03/31 08:45:41;;;;;;;0.80;0.80;;;12.10;97.80;;;;;;6126118;23;20876;-75
2023/03/31 08:48:19;;;;;;;0.60;0.60;;;13.00;97.50;;;;;;6121585;23;20399;-71
2023/03/31 08:50:51;;;;;;;0.60;0.60;;;13.70;96.20;;;;;;6126128;23;20356;-75
2023/03/31 08:53:31;;;;;;;0.40;0.40;;;14.00;94.00;;;;;;6126830;23;20419;-73
2023/03/31 08:55:58;;;;;;;0.97;0.40;;;14.20;94.70;;;;;;6126977;23;20852;-76
2023/03/31 08:58:33;;;;;;;0.40;0.40;;;14.20;93.70;;;;;;6126838;23;20732;-77
2023/03/31 09:01:29;;;;;;;0.40;0.40;;;13.90;94.10;;;;;;6126578;23;20392;-75
2023/03/31 09:04:04;;;;;;;0.47;0.47;;;13.60;93.50;;;;;;6126676;23;20370;-73
2023/03/31 09:06:42;;;;;;;0.40;0.40;;;13.40;93.70;;;;;;6100924;23;20463;-73
2023/03/31 09:09:28;;;;;;;0.40;0.40;;;13.40;94.20;;;;;;6099844;23;20411;-77
2023/03/31 09:11:59;;;;;;;0.60;0.60;;;13.30;93.80;;;;;;6125396;23;20392;-79
2023/03/31 09:14:39;;;;;;;0.50;0.50;;;13.30;93.90;;;;;;6126822;23;20424;-74
2023/03/31 09:17:05;;;;;;;0.47;0.47;;;13.20;94.00;;;;;;6100447;23;20870;-79
2023/03/31 09:20:06;;;;;;;0.80;0.60;;;13.10;94.40;;;;;;6101156;23;20530;-75
2023/03/31 09:22:37;;;;;;;0.30;0.30;;;12.80;94.10;;;;;;6126791;23;20250;-72
2023/03/31 09:25:22;;;;;;;0.50;0.50;;;12.80;94.70;;;;;;6100882;23;20368;-70
2023/03/31 09:27:49;;;;;;;0.97;0.97;;;12.80;94.10;;;;;;6126758;23;20793;-74
2023/03/31 09:30:28;;;;;;;0.40;0.40;;;12.70;94.10;;;;;;6127235;23;20739;-73
2023/03/31 09:33:12;;;;;;;0.40;0.40;;;12.60;93.80;;;;;;6126521;23;20391;-72
2023/03/31 09:35:38;;;;;;;0.40;0.40;;;12.10;95.40;;;;;;6126364;23;21059;-75
2023/03/31 09:38:03;;;;;;;0.40;0.40;;;12.10;94.60;;;;;;6126896;23;20419;-75
2023/03/31 09:40:29;;;;;;;5.60;1.90;;;12.10;94.30;;;;;;6126321;23;20168;-72
2023/03/31 09:43:05;;;;;;;0.40;0.40;;;12.20;95.00;;;;;;6126252;23;20180;-74
2023/03/31 09:45:32;;;;;;;0.60;0.60;;;12.60;94.60;;;;;;6126238;23;20175;-73
2023/03/31 09:48:02;;;;;;;0.40;0.40;;;13.10;93.40;;;;;;6126686;23;20381;-73
2023/03/31 09:50:29;;;;;;;0.93;0.93;;;13.70;92.90;;;;;;6126420;23;20376;-70
2023/03/31 09:52:58;;;;;;;0.80;0.70;;;13.90;91.60;;;;;;6126678;23;20458;-72
2023/03/31 09:55:41;;;;;;;0.43;0.43;;;13.80;92.00;;;;;;6127047;23;20381;-71
2023/03/31 09:58:12;;;;;;;1.00;1.00;;;13.60;91.30;;;;;;6100360;23;20423;-74
2023/03/31 10:00:56;;;;;;;6.53;0.93;;;13.60;91.50;;;;;;6126855;23;20399;-75
2023/03/31 10:03:23;;;;;;;0.40;0.40;;;14.20;91.50;;;;;;6127002;23;20538;-75
2023/03/31 10:05:51;;;;;;;0.43;0.43;;;15.30;89.90;;;;;;6126910;23;20461;-73
2023/03/31 10:08:16;;;;;;;0.30;0.30;;;16.40;87.30;;;;;;6126503;23;20399;-74
2023/03/31 10:10:56;;;;;;;0.40;0.40;;;17.10;81.40;;;;;;6127905;23;20372;-74
2023/03/31 10:13:28;;;;;;;0.30;0.30;;;16.90;81.00;;;;;;6102707;23;20610;-73
2023/03/31 10:16:01;;;;;;;0.70;0.70;;;17.00;77.30;;;;;;6128618;23;20368;-71
2023/03/31 10:18:33;;;;;;;0.40;0.40;;;16.80;76.80;;;;;;6103047;23;20417;-72
2023/03/31 10:21:01;;;;;;;0.40;0.40;;;15.70;78.00;;;;;;6102263;23;20458;-73
2023/03/31 10:23:31;;;;;;;0.37;0.37;;;15.70;79.20;;;;;;6128619;23;20379;-74
2023/03/31 10:25:57;;;;;;;0.30;0.30;;;15.90;79.30;;;;;;6128061;23;20371;-74
2023/03/31 10:28:24;;;;;;;0.30;0.30;;;16.30;77.90;;;;;;6128659;23;20372;-74
2023/03/31 10:30:55;;;;;;;0.40;0.40;;;16.30;75.60;;;;;;6128354;23;20383;-76
2023/03/31 10:33:26;;;;;;;0.40;0.40;;;15.60;77.60;;;;;;6128995;23;20756;-74
2023/03/31 10:36:01;;;;;;;0.40;0.40;;;16.10;75.40;;;;;;6128060;23;20455;-71
2023/03/31 10:38:35;;;;;;;0.87;0.83;;;16.40;74.10;;;;;;6128495;23;20485;-72
2023/03/31 10:41:01;;;;;;;0.93;0.93;;;16.70;75.30;;;;;;6128331;23;20388;-70
2023/03/31 10:43:39;;;;;;;0.50;0.50;;;16.60;71.70;;;;;;6129165;23;20361;-71
2023/03/31 10:46:05;;;;;;;0.40;0.40;;;16.30;72.90;;;;;;6128211;23;20352;-72
2023/03/31 10:48:40;;;;;;;0.70;0.50;;;16.10;72.00;;;;;;6128250;23;20444;-70
2023/03/31 10:51:24;;;;;;;0.60;0.60;;;15.70;72.70;;;;;;6102340;23;20419;-72
2023/03/31 10:53:52;;;;;;;0.60;0.60;;;15.20;70.40;;;;;;6128601;23;20353;-72
2023/03/31 10:56:38;;;;;;;0.40;0.40;;;14.90;73.20;;;;;;6128250;23;20375;-71
2023/03/31 10:59:19;;;;;;;0.30;0.30;;;14.90;73.70;;;;;;6128155;23;20407;-72
2023/03/31 11:01:53;;;;;;;1.37;0.50;;;14.70;71.50;;;;;;6128301;23;20768;-71
2023/03/31 11:04:34;;;;;;;0.40;0.40;;;13.90;74.50;;;;;;6127452;23;20396;-70
2023/03/31 11:07:12;;;;;;;0.40;0.40;;;13.30;77.20;;;;;;6127815;23;20372;-70
2023/03/31 11:09:46;;;;;;;0.80;0.50;;;12.80;82.80;;;;;;6102242;23;20384;-73
2023/03/31 11:12:23;;;;;;;0.97;0.97;;;12.40;86.50;;;;;;6128168;23;20396;-70
2023/03/31 11:14:57;;;;;;;0.50;0.50;;;12.60;87.40;;;;;;6128495;23;20352;-72
2023/03/31 11:17:46;;;;;;;1.17;0.67;;;13.40;87.60;;;;;;6127629;23;20395;-74
2023/03/31 11:20:12;;;;;;;0.30;0.30;;;14.20;85.30;;;;;;6128189;23;20370;-71
2023/03/31 11:22:57;;;;;;;0.40;0.40;;;14.90;82.00;;;;;;6126981;23;20879;-73
2023/03/31 11:25:28;;;;;;;0.40;0.40;;;15.30;80.80;;;;;;6128215;23;20211;-72
2023/03/31 11:28:01;;;;;;;0.40;0.40;;;14.80;76.90;;;;;;6128053;23;20368;-73
2023/03/31 11:30:47;;;;;;;0.33;0.33;;;14.60;79.40;;;;;;6102013;23;20931;-70
2023/03/31 11:33:28;;;;;;;0.50;0.50;;;14.20;78.50;;;;;;6127536;23;20735;-72
2023/03/31 11:36:15;;;;;;;0.30;0.30;;;14.00;80.10;;;;;;6127924;23;20413;-76
2023/03/31 11:39:06;;;;;;;0.40;0.40;;;14.10;80.40;;;;;;6101944;23;20422;-74
2023/03/31 11:41:41;;;;;;;0.37;0.37;;;14.10;77.70;;;;;;6127170;23;20422;-72
2023/03/31 11:44:12;;;;;;;0.40;0.40;;;14.20;82.60;;;;;;6127500;23;20379;-71
2023/03/31 11:47:00;;;;;;;0.40;0.40;;;14.00;78.40;;;;;;6127616;23;20408;-73
2023/03/31 11:49:37;;;;;;;0.30;0.30;;;13.80;79.70;;;;;;6127843;23;20357;-71
2023/03/31 11:52:16;;;;;;;0.30;0.30;;;13.80;79.00;;;;;;6128118;23;20392;-71
2023/03/31 11:55:14;;;;;;;0.30;0.30;;;13.70;79.30;;;;;;6128038;23;20431;-72
2023/03/31 11:57:51;;;;;;;0.40;0.40;;;12.90;80.80;;;;;;6127586;23;20384;-71
2023/03/31 12:00:21;;;;;;;0.40;0.40;;;12.20;82.80;;;;;;6127429;23;20440;-73
2023/03/31 12:03:08;;;;;;;0.40;0.40;;;11.70;85.80;;;;;;6127196;23;20412;-70
2023/03/31 12:05:40;;;;;;;0.30;0.30;;;11.40;85.80;;;;;;6127267;23;20368;-73
2023/03/31 12:08:32;;;;;;;0.30;0.30;;;11.10;85.00;;;;;;6101708;23;20368;-72
2023/03/31 12:11:20;;;;;;;0.50;0.50;;;10.80;87.60;;;;;;6101651;23;20724;-70
2023/03/31 12:14:10;;;;;;;0.40;0.40;;;10.70;90.20;;;;;;6127432;23;20682;-72
2023/03/31 12:16:45;;;;;;;0.30;0.30;;;10.60;90.00;;;;;;6127022;23;20472;-73
2023/03/31 12:19:27;;;;;;;0.30;0.30;;;10.80;88.80;;;;;;6127119;23;20230;-75
2023/03/31 12:21:59;;;;;;;0.30;0.30;;;11.10;90.80;;;;;;6127485;23;20168;-75
2023/03/31 12:24:25;;;;;;;0.30;0.30;;;11.50;89.00;;;;;;6127008;23;20356;-73
2023/03/31 12:27:17;;;;;;;1.67;0.50;;;12.20;88.00;;;;;;6126607;23;20705;-75
2023/03/31 12:29:52;;;;;;;0.33;0.33;;;12.50;85.20;;;;;;6127918;23;20367;-73
2023/03/31 12:32:21;;;;;;;0.30;0.30;;;12.80;83.20;;;;;;6127122;23;20434;-76
2023/03/31 12:35:05;;;;;;;0.40;0.40;;;12.90;83.80;;;;;;6127612;23;20499;-74
2023/03/31 12:38:14;;;;;;;0.73;0.73;;;13.20;86.00;;;;;;6127267;23;20386;-74
2023/03/31 12:40:58;;;;;;;0.30;0.30;;;13.40;84.80;;;;;;6127585;23;20751;-74
2023/03/31 12:44:00;;;;;;;0.30;0.30;;;13.30;82.20;;;;;;6127105;23;20364;-73
2023/03/31 12:47:05;;;;;;;0.30;0.30;;;12.90;84.40;;;;;;6127026;23;20348;-71
2023/03/31 12:49:33;;;;;;;0.33;0.33;;;13.00;82.90;;;;;;6105255;23;20830;-72
2023/03/31 12:52:07;;;;;;;0.43;0.43;;;13.20;82.70;;;;;;6127076;23;20392;-72
2023/03/31 12:54:39;;;;;;;0.30;0.30;;;13.20;82.10;;;;;;6127236;23;20353;-71
2023/03/31 12:57:14;;;;;;;0.40;0.40;;;13.00;83.90;;;;;;6126733;23;20395;-73
2023/03/31 12:59:42;;;;;;;0.50;0.50;;;13.10;83.60;;;;;;6126477;23;20410;-71
2023/03/31 13:02:14;;;;;;;0.40;0.40;;;13.10;82.90;;;;;;6126516;23;20407;-71
2023/03/31 13:04:40;;;;;;;2.30;0.50;;;12.90;82.90;;;;;;6127300;23;20400;-70
2023/03/31 13:07:24;;;;;;;3.30;0.70;;;12.70;83.60;;;;;;6126513;23;20418;-71
2023/03/31 13:09:56;;;;;;;0.30;0.30;;;12.50;83.50;;;;;;6126992;23;20815;-72
2023/03/31 13:12:26;;;;;;;0.97;0.80;;;12.40;84.50;;;;;;6126756;23;20904;-72
2023/03/31 13:14:57;;;;;;;0.30;0.30;;;12.20;85.80;;;;;;6126970;23;20363;-71
2023/03/31 13:17:25;;;;;;;0.40;0.40;;;12.00;85.60;;;;;;6127189;23;20352;-72
2023/03/31 13:19:52;;;;;;;2.73;0.53;;;12.10;85.90;;;;;;6126542;23;20591;-79
2023/03/31 13:22:34;;;;;;;0.40;0.30;;;12.20;86.20;;;;;;6126731;23;20395;-75
2023/03/31 13:25:27;;;;;;;0.50;0.50;;;12.30;85.90;;;;;;6127065;23;20355;-73
2023/03/31 13:27:54;;;;;;;17.30;1.63;;;12.50;85.80;;;;;;6126860;23;20366;-72
2023/03/31 13:30:40;;;;;;;1.13;0.50;;;12.60;83.40;;;;;;6127354;23;20375;-74
2023/03/31 13:33:40;;;;;;;0.30;0.30;;;12.50;83.30;;;;;;6126434;23;20386;-75
2023/03/31 13:36:18;;;;;;;1.17;1.07;;;12.30;84.00;;;;;;5980459;24;20412;-73